NWK1613 YGEL-YPPH
Flight info
| Callsign | NWK1613 |
|---|---|
| Flight time | 0h 36m |
| Altitude | 28000 |
| Route | GEL Z41 HINDS Q38 JULIM |
| Aircraft | A319/M-SDFGHIRWXYZ/LB1 |
Departure
| Time | 2026-04-27 01:54 |
|---|---|
| Airport | Geraldton Airport (YGEL) |
Arrival
| Time | 2026-04-27 02:30 |
|---|---|
| Airport | Perth International Airport (YPPH) |
| Time | Latitude | Longitude | Altitude | Speed | Heading |
|---|---|---|---|---|---|
| 2026-04-27 01:41 | -28.79571 | 114.70312 | 116 ft | 0 kts | 321° |
| 2026-04-27 01:49 | -28.79557 | 114.70316 | 112 ft | 4 kts | 28° |
| 2026-04-27 01:49 | -28.79550 | 114.70348 | 115 ft | 5 kts | 97° |
| 2026-04-27 01:50 | -28.79563 | 114.70396 | 114 ft | 7 kts | 107° |
| 2026-04-27 01:50 | -28.79582 | 114.70458 | 116 ft | 9 kts | 111° |
| 2026-04-27 01:50 | -28.79606 | 114.70529 | 117 ft | 10 kts | 111° |
| 2026-04-27 01:50 | -28.79627 | 114.70604 | 118 ft | 10 kts | 108° |
| 2026-04-27 01:51 | -28.79689 | 114.70625 | 119 ft | 11 kts | 194° |
| 2026-04-27 01:51 | -28.79770 | 114.70595 | 122 ft | 13 kts | 198° |
| 2026-04-27 01:51 | -28.79868 | 114.70557 | 120 ft | 17 kts | 198° |
| 2026-04-27 01:51 | -28.79989 | 114.70512 | 117 ft | 20 kts | 198° |
| 2026-04-27 01:52 | -28.80127 | 114.70460 | 118 ft | 22 kts | 198° |
| 2026-04-27 01:52 | -28.80282 | 114.70404 | 118 ft | 24 kts | 195° |
| 2026-04-27 01:52 | -28.80447 | 114.70337 | 120 ft | 26 kts | 200° |
| 2026-04-27 01:52 | -28.80626 | 114.70268 | 119 ft | 28 kts | 198° |
| 2026-04-27 01:53 | -28.80771 | 114.70251 | 117 ft | 18 kts | 169° |
| 2026-04-27 01:53 | -28.80780 | 114.70204 | 118 ft | 9 kts | 12° |
| 2026-04-27 01:53 | -28.80697 | 114.70243 | 120 ft | 27 kts | 19° |
| 2026-04-27 01:53 | -28.80310 | 114.70389 | 118 ft | 89 kts | 19° |
| 2026-04-27 01:54 | -28.79532 | 114.70686 | 126 ft | 144 kts | 20° |
| 2026-04-27 01:54 | -28.78580 | 114.71041 | 695 ft | 143 kts | 21° |
| 2026-04-27 01:54 | -28.77629 | 114.71408 | 1282 ft | 146 kts | 21° |
| 2026-04-27 01:54 | -28.76655 | 114.71782 | 1850 ft | 149 kts | 21° |
| 2026-04-27 01:55 | -28.75758 | 114.72472 | 2162 ft | 169 kts | 57° |
| 2026-04-27 01:55 | -28.75474 | 114.73839 | 2444 ft | 194 kts | 97° |
| 2026-04-27 01:55 | -28.76071 | 114.75282 | 2765 ft | 221 kts | 133° |
| 2026-04-27 01:55 | -28.77461 | 114.76217 | 3244 ft | 248 kts | 166° |
| 2026-04-27 01:56 | -28.81157 | 114.76559 | 4722 ft | 279 kts | 179° |
| 2026-04-27 01:56 | -28.83130 | 114.76677 | 5585 ft | 289 kts | 179° |
| 2026-04-27 01:56 | -28.85167 | 114.76816 | 6445 ft | 299 kts | 179° |
| 2026-04-27 01:57 | -28.87259 | 114.77142 | 7240 ft | 311 kts | 164° |
| 2026-04-27 01:57 | -28.89207 | 114.78260 | 8093 ft | 318 kts | 147° |
| 2026-04-27 01:57 | -28.91110 | 114.79613 | 8969 ft | 325 kts | 147° |
| 2026-04-27 01:57 | -28.93048 | 114.80996 | 9842 ft | 332 kts | 147° |
| 2026-04-27 01:58 | -28.95051 | 114.82425 | 10343 ft | 351 kts | 147° |
| 2026-04-27 01:58 | -28.97194 | 114.83951 | 10628 ft | 375 kts | 148° |
| 2026-04-27 01:58 | -28.99455 | 114.85558 | 11155 ft | 387 kts | 148° |
| 2026-04-27 01:58 | -29.01750 | 114.87181 | 11921 ft | 392 kts | 149° |
| 2026-04-27 01:59 | -29.04082 | 114.88834 | 12708 ft | 395 kts | 149° |
| 2026-04-27 01:59 | -29.06425 | 114.90499 | 13502 ft | 397 kts | 150° |
| 2026-04-27 01:59 | -29.08784 | 114.92174 | 14223 ft | 400 kts | 150° |
| 2026-04-27 01:59 | -29.11156 | 114.93856 | 14874 ft | 403 kts | 150° |
| 2026-04-27 02:00 | -29.13551 | 114.95558 | 15522 ft | 406 kts | 150° |
| 2026-04-27 02:00 | -29.15956 | 114.97275 | 16155 ft | 410 kts | 150° |
| 2026-04-27 02:00 | -29.18391 | 114.99014 | 16789 ft | 414 kts | 150° |
| 2026-04-27 02:00 | -29.20845 | 115.00765 | 17418 ft | 418 kts | 150° |
| 2026-04-27 02:01 | -29.23292 | 115.02509 | 18050 ft | 421 kts | 150° |
| 2026-04-27 02:01 | -29.25785 | 115.04288 | 18643 ft | 425 kts | 150° |
| 2026-04-27 02:01 | -29.28307 | 115.06089 | 19181 ft | 429 kts | 150° |
| 2026-04-27 02:01 | -29.30856 | 115.07909 | 19724 ft | 433 kts | 150° |
| 2026-04-27 02:02 | -29.33418 | 115.09741 | 20275 ft | 436 kts | 150° |
| 2026-04-27 02:02 | -29.35953 | 115.11686 | 20828 ft | 441 kts | 143° |
| 2026-04-27 02:02 | -29.38319 | 115.13967 | 21376 ft | 445 kts | 140° |
| 2026-04-27 02:02 | -29.40769 | 115.16139 | 21895 ft | 448 kts | 147° |
| 2026-04-27 02:03 | -29.43345 | 115.18182 | 22419 ft | 451 kts | 147° |
| 2026-04-27 02:03 | -29.45953 | 115.20202 | 22928 ft | 454 kts | 148° |
| 2026-04-27 02:03 | -29.48591 | 115.22220 | 23412 ft | 458 kts | 148° |
| 2026-04-27 02:03 | -29.51253 | 115.24249 | 23847 ft | 461 kts | 148° |
| 2026-04-27 02:04 | -29.53934 | 115.26299 | 24258 ft | 464 kts | 148° |
| 2026-04-27 02:04 | -29.56611 | 115.28363 | 24675 ft | 466 kts | 147° |
| 2026-04-27 02:04 | -29.59309 | 115.30459 | 25091 ft | 469 kts | 147° |
| 2026-04-27 02:04 | -29.61976 | 115.32541 | 25510 ft | 471 kts | 147° |
| 2026-04-27 02:05 | -29.64691 | 115.34663 | 25914 ft | 473 kts | 147° |
| 2026-04-27 02:05 | -29.67421 | 115.36796 | 26323 ft | 476 kts | 147° |
| 2026-04-27 02:05 | -29.70169 | 115.38941 | 26740 ft | 478 kts | 147° |
| 2026-04-27 02:05 | -29.72934 | 115.41100 | 27157 ft | 481 kts | 147° |
| 2026-04-27 02:06 | -29.75701 | 115.43261 | 27558 ft | 483 kts | 147° |
| 2026-04-27 02:06 | -29.78493 | 115.45439 | 27935 ft | 485 kts | 147° |
| 2026-04-27 02:06 | -29.81288 | 115.47619 | 28044 ft | 483 kts | 147° |
| 2026-04-27 02:06 | -29.84059 | 115.49777 | 28071 ft | 477 kts | 147° |
| 2026-04-27 02:07 | -29.89530 | 115.54047 | 28059 ft | 475 kts | 147° |
| 2026-04-27 02:07 | -29.94995 | 115.58330 | 28072 ft | 475 kts | 147° |
| 2026-04-27 02:08 | -30.00448 | 115.62615 | 28070 ft | 475 kts | 147° |
| 2026-04-27 02:08 | -30.05906 | 115.66917 | 28086 ft | 475 kts | 147° |
| 2026-04-27 02:09 | -30.11363 | 115.71218 | 28079 ft | 475 kts | 147° |
| 2026-04-27 02:09 | -30.16826 | 115.75511 | 28083 ft | 474 kts | 147° |
| 2026-04-27 02:10 | -30.22282 | 115.79806 | 28083 ft | 474 kts | 147° |
| 2026-04-27 02:10 | -30.27704 | 115.84081 | 28078 ft | 474 kts | 147° |
| 2026-04-27 02:11 | -30.33160 | 115.88408 | 28069 ft | 475 kts | 147° |
| 2026-04-27 02:11 | -30.38610 | 115.92730 | 28073 ft | 475 kts | 147° |
| 2026-04-27 02:12 | -30.44061 | 115.97055 | 28067 ft | 475 kts | 147° |
| 2026-04-27 02:12 | -30.49507 | 116.01384 | 28065 ft | 475 kts | 146° |
| 2026-04-27 02:13 | -30.54948 | 116.05714 | 28067 ft | 475 kts | 147° |
| 2026-04-27 02:13 | -30.60414 | 116.10059 | 28066 ft | 476 kts | 147° |
| 2026-04-27 02:14 | -30.65875 | 116.14414 | 27556 ft | 474 kts | 147° |
| 2026-04-27 02:14 | -30.68590 | 116.16580 | 26832 ft | 475 kts | 147° |
| 2026-04-27 02:14 | -30.71310 | 116.18756 | 26119 ft | 474 kts | 147° |
| 2026-04-27 02:15 | -30.74023 | 116.20930 | 25422 ft | 473 kts | 147° |
| 2026-04-27 02:15 | -30.76728 | 116.23096 | 24733 ft | 471 kts | 147° |
| 2026-04-27 02:15 | -30.79387 | 116.25228 | 24052 ft | 469 kts | 147° |
| 2026-04-27 02:15 | -30.82067 | 116.27379 | 23322 ft | 467 kts | 147° |
| 2026-04-27 02:16 | -30.84737 | 116.29519 | 22644 ft | 463 kts | 147° |
| 2026-04-27 02:16 | -30.87373 | 116.31636 | 22015 ft | 457 kts | 147° |
| 2026-04-27 02:16 | -30.89979 | 116.33729 | 21400 ft | 453 kts | 147° |
| 2026-04-27 02:16 | -30.92564 | 116.35802 | 20802 ft | 449 kts | 147° |
| 2026-04-27 02:17 | -30.95126 | 116.37858 | 20218 ft | 445 kts | 148° |
| 2026-04-27 02:17 | -30.97670 | 116.39897 | 19633 ft | 443 kts | 149° |
| 2026-04-27 02:17 | -31.00364 | 116.41567 | 19032 ft | 435 kts | 162° |
| 2026-04-27 02:17 | -31.03240 | 116.42509 | 18476 ft | 426 kts | 175° |
| 2026-04-27 02:18 | -31.06158 | 116.42712 | 17861 ft | 414 kts | 188° |
| 2026-04-27 02:18 | -31.08956 | 116.42224 | 17300 ft | 400 kts | 200° |
| 2026-04-27 02:18 | -31.11566 | 116.41244 | 16750 ft | 391 kts | 205° |
| 2026-04-27 02:18 | -31.14128 | 116.40233 | 16191 ft | 387 kts | 205° |
| 2026-04-27 02:19 | -31.16658 | 116.39240 | 15633 ft | 383 kts | 205° |
| 2026-04-27 02:19 | -31.19149 | 116.38264 | 15079 ft | 380 kts | 205° |
| 2026-04-27 02:19 | -31.21650 | 116.37286 | 14515 ft | 377 kts | 205° |
| 2026-04-27 02:19 | -31.24138 | 116.36312 | 13946 ft | 375 kts | 205° |
| 2026-04-27 02:20 | -31.26609 | 116.35339 | 13342 ft | 374 kts | 205° |
| 2026-04-27 02:20 | -31.29082 | 116.34357 | 13100 ft | 378 kts | 205° |
| 2026-04-27 02:20 | -31.31582 | 116.33363 | 13079 ft | 379 kts | 205° |
| 2026-04-27 02:20 | -31.34094 | 116.32370 | 12884 ft | 381 kts | 205° |
| 2026-04-27 02:21 | -31.36599 | 116.31381 | 11625 ft | 384 kts | 205° |
| 2026-04-27 02:21 | -31.39129 | 116.30383 | 10731 ft | 379 kts | 205° |
| 2026-04-27 02:21 | -31.41547 | 116.29397 | 10575 ft | 357 kts | 210° |
| 2026-04-27 02:21 | -31.43688 | 116.28103 | 10454 ft | 337 kts | 216° |
| 2026-04-27 02:22 | -31.45712 | 116.26816 | 10331 ft | 324 kts | 216° |
| 2026-04-27 02:22 | -31.47652 | 116.25582 | 10181 ft | 312 kts | 217° |
| 2026-04-27 02:22 | -31.49522 | 116.24388 | 9797 ft | 310 kts | 217° |
| 2026-04-27 02:22 | -31.51417 | 116.23166 | 9397 ft | 307 kts | 216° |
| 2026-04-27 02:23 | -31.53299 | 116.21956 | 8908 ft | 305 kts | 216° |
| 2026-04-27 02:23 | -31.55129 | 116.20779 | 8384 ft | 303 kts | 216° |
| 2026-04-27 02:23 | -31.56973 | 116.19597 | 7787 ft | 301 kts | 215° |
| 2026-04-27 02:23 | -31.58800 | 116.18427 | 7207 ft | 299 kts | 215° |
| 2026-04-27 02:24 | -31.60501 | 116.17337 | 6717 ft | 295 kts | 214° |
| 2026-04-27 02:24 | -31.62247 | 116.16224 | 6542 ft | 277 kts | 214° |
| 2026-04-27 02:24 | -31.63917 | 116.15155 | 6165 ft | 270 kts | 214° |
| 2026-04-27 02:24 | -31.65555 | 116.14100 | 6032 ft | 268 kts | 214° |
| 2026-04-27 02:25 | -31.67191 | 116.13043 | 5568 ft | 268 kts | 214° |
| 2026-04-27 02:25 | -31.68821 | 116.11990 | 5091 ft | 268 kts | 213° |
| 2026-04-27 02:25 | -31.70460 | 116.10934 | 4627 ft | 268 kts | 213° |
| 2026-04-27 02:25 | -31.72100 | 116.09880 | 4141 ft | 267 kts | 212° |
| 2026-04-27 02:26 | -31.73713 | 116.08847 | 3680 ft | 266 kts | 212° |
| 2026-04-27 02:26 | -31.75260 | 116.07674 | 3248 ft | 263 kts | 226° |
| 2026-04-27 02:26 | -31.76419 | 116.06096 | 3014 ft | 248 kts | 238° |
| 2026-04-27 02:26 | -31.77427 | 116.04528 | 2898 ft | 233 kts | 237° |
| 2026-04-27 02:27 | -31.78389 | 116.03052 | 2797 ft | 223 kts | 237° |
| 2026-04-27 02:27 | -31.79330 | 116.01622 | 2691 ft | 221 kts | 235° |
| 2026-04-27 02:27 | -31.80544 | 116.00506 | 2483 ft | 231 kts | 206° |
| 2026-04-27 02:27 | -31.82085 | 115.99965 | 2221 ft | 230 kts | 194° |
| 2026-04-27 02:28 | -31.83627 | 115.99527 | 1908 ft | 225 kts | 193° |
| 2026-04-27 02:28 | -31.85117 | 115.99098 | 1623 ft | 215 kts | 193° |
| 2026-04-27 02:28 | -31.86510 | 115.98693 | 1362 ft | 198 kts | 193° |
| 2026-04-27 02:28 | -31.87789 | 115.98321 | 1077 ft | 179 kts | 193° |
| 2026-04-27 02:29 | -31.88933 | 115.97988 | 868 ft | 159 kts | 193° |
| 2026-04-27 02:29 | -31.89935 | 115.97697 | 668 ft | 140 kts | 194° |
| 2026-04-27 02:29 | -31.90850 | 115.97431 | 483 ft | 132 kts | 196° |
| 2026-04-27 02:29 | -31.91727 | 115.97176 | 321 ft | 128 kts | 197° |
| 2026-04-27 02:30 | -31.92576 | 115.96928 | 165 ft | 124 kts | 198° |
| 2026-04-27 02:30 | -31.93382 | 115.96690 | 65 ft | 110 kts | 194° |
| 2026-04-27 02:30 | -31.93992 | 115.96516 | 70 ft | 66 kts | 194° |
| 2026-04-27 02:30 | -31.94310 | 115.96421 | 64 ft | 37 kts | 193° |
| 2026-04-27 02:31 | -31.94439 | 115.96296 | 69 ft | 16 kts | 284° |
| 2026-04-27 02:31 | -31.94379 | 115.96185 | 68 ft | 17 kts | 333° |
| 2026-04-27 02:31 | -31.94252 | 115.96207 | 65 ft | 20 kts | 17° |
| 2026-04-27 02:31 | -31.94106 | 115.96248 | 65 ft | 21 kts | 14° |
| 2026-04-27 02:32 | -31.93996 | 115.96257 | 64 ft | 14 kts | 347° |
| 2026-04-27 02:32 | -31.93907 | 115.96228 | 66 ft | 13 kts | 346° |
| 2026-04-27 02:32 | -31.93822 | 115.96205 | 65 ft | 12 kts | 347° |
| 2026-04-27 02:32 | -31.93740 | 115.96187 | 63 ft | 11 kts | 352° |
| 2026-04-27 02:33 | -31.93663 | 115.96176 | 63 ft | 11 kts | 360° |
| 2026-04-27 02:33 | -31.93592 | 115.96196 | 65 ft | 10 kts | 14° |
| 2026-04-27 02:33 | -31.93525 | 115.96224 | 66 ft | 10 kts | 33° |
| 2026-04-27 02:33 | -31.93485 | 115.96219 | 61 ft | 5 kts | 279° |
| 2026-04-27 02:34 | -31.93479 | 115.96178 | 68 ft | 5 kts | 287° |
| 2026-04-27 02:34 | -31.93466 | 115.96150 | 64 ft | 0 kts | 302° |
| 2026-04-27 02:34 | -31.93466 | 115.96149 | 64 ft | 0 kts | 302° |